createdAt,value
2022-08-29T00:01:13.115Z,100.00
2022-08-29T00:03:43.099Z,100.00
2022-08-29T00:06:10.958Z,100.00
2022-08-29T00:08:38.122Z,100.00
2022-08-29T00:11:06.806Z,100.00
2022-08-29T00:13:35.629Z,100.00
2022-08-29T00:16:03.446Z,100.00
2022-08-29T00:18:30.990Z,100.00
2022-08-29T00:20:58.274Z,100.00
2022-08-29T00:23:25.953Z,100.00
2022-08-29T00:25:53.358Z,100.00
2022-08-29T00:28:21.012Z,100.00
2022-08-29T00:30:50.564Z,100.00
2022-08-29T00:33:18.871Z,100.00
2022-08-29T00:35:46.998Z,100.00
2022-08-29T00:38:18.266Z,100.00
2022-08-29T00:40:53.129Z,100.00
2022-08-29T00:43:26.172Z,100.00
2022-08-29T00:46:38.796Z,100.00
2022-08-29T00:49:22.977Z,100.00
2022-08-29T00:51:52.082Z,100.00
2022-08-29T00:54:20.159Z,100.00
2022-08-29T00:56:48.014Z,100.00
2022-08-29T00:59:31.771Z,100.00
2022-08-29T01:01:59.349Z,100.00
2022-08-29T01:04:27.137Z,100.00
2022-08-29T01:06:54.874Z,100.00
2022-08-29T01:09:24.393Z,100.00
2022-08-29T01:12:11.683Z,100.00
2022-08-29T01:14:41.176Z,100.00
2022-08-29T01:17:10.629Z,100.00
2022-08-29T01:20:18.937Z,100.00
2022-08-29T01:23:27.525Z,100.00
2022-08-29T01:25:57.673Z,100.00
2022-08-29T01:28:37.940Z,100.00
2022-08-29T01:31:11.434Z,100.00
2022-08-29T01:33:49.407Z,100.00
2022-08-29T01:36:25.188Z,100.00
2022-08-29T01:38:52.785Z,100.00
2022-08-29T01:41:22.722Z,100.00
2022-08-29T01:43:53.081Z,100.00
2022-08-29T01:46:24.677Z,100.00
2022-08-29T01:48:52.225Z,100.00
2022-08-29T01:51:20.218Z,100.00
2022-08-29T01:53:47.908Z,100.00
2022-08-29T01:56:24.124Z,100.00
2022-08-29T01:58:54.143Z,100.00
2022-08-29T02:01:27.804Z,100.00
2022-08-29T02:03:58.709Z,100.00
2022-08-29T02:06:28.452Z,100.00
2022-08-29T02:08:55.758Z,100.00
2022-08-29T02:11:23.673Z,100.00
2022-08-29T02:13:57.396Z,100.00
2022-08-29T02:16:27.319Z,100.00
2022-08-29T02:18:55.820Z,100.00
2022-08-29T02:21:27.365Z,100.00
2022-08-29T02:23:57.194Z,100.00
2022-08-29T02:26:24.893Z,100.00
2022-08-29T02:28:53.504Z,100.00
2022-08-29T02:31:22.777Z,100.00
2022-08-29T02:33:51.934Z,100.00
2022-08-29T02:36:21.374Z,100.00
2022-08-29T02:38:50.008Z,100.00
2022-08-29T02:41:17.672Z,100.00
2022-08-29T02:43:45.120Z,100.00
2022-08-29T02:46:20.035Z,100.00
2022-08-29T02:48:49.302Z,100.00
2022-08-29T02:51:29.849Z,100.00
2022-08-29T02:53:58.337Z,100.00
2022-08-29T02:56:26.503Z,100.00
2022-08-29T02:58:53.992Z,100.00
2022-08-29T03:01:23.989Z,100.00
2022-08-29T03:03:52.656Z,100.00
2022-08-29T03:06:21.226Z,100.00
2022-08-29T03:08:49.233Z,100.00
2022-08-29T03:11:17.538Z,100.00
2022-08-29T03:13:46.109Z,100.00
2022-08-29T03:16:13.888Z,100.00
2022-08-29T03:18:41.583Z,100.00
2022-08-29T03:21:17.250Z,100.00
2022-08-29T03:23:44.754Z,100.00
2022-08-29T03:26:12.244Z,100.00
2022-08-29T03:28:39.822Z,100.00
2022-08-29T03:31:07.707Z,100.00
2022-08-29T03:33:35.347Z,100.00
2022-08-29T03:36:03.426Z,100.00
2022-08-29T03:38:35.711Z,100.00
2022-08-29T03:41:02.908Z,100.00
2022-08-29T03:43:30.125Z,100.00
2022-08-29T03:45:57.883Z,100.00
2022-08-29T03:48:24.861Z,100.00
2022-08-29T03:50:55.844Z,100.00
2022-08-29T03:53:24.655Z,100.00
2022-08-29T03:55:52.156Z,100.00
2022-08-29T03:58:19.454Z,100.00
2022-08-29T04:00:47.511Z,100.00
2022-08-29T04:03:14.579Z,100.00
2022-08-29T04:05:41.783Z,100.00
2022-08-29T04:08:09.421Z,100.00
2022-08-29T04:10:39.141Z,100.00
2022-08-29T04:13:08.454Z,100.00
2022-08-29T04:15:38.679Z,100.00
2022-08-29T04:18:08.835Z,100.00
2022-08-29T04:20:39.627Z,100.00
2022-08-29T04:23:07.145Z,100.00
2022-08-29T04:25:37.789Z,100.00
2022-08-29T04:28:09.202Z,100.00
2022-08-29T04:30:39.128Z,100.00
2022-08-29T04:33:07.048Z,100.00
2022-08-29T04:35:35.509Z,100.00
2022-08-29T04:38:03.953Z,100.00
2022-08-29T04:40:31.523Z,100.00
2022-08-29T04:42:59.487Z,100.00
2022-08-29T04:45:27.457Z,100.00
2022-08-29T04:47:55.124Z,100.00
2022-08-29T04:50:24.366Z,100.00
2022-08-29T04:52:56.049Z,100.00
2022-08-29T04:55:25.695Z,100.00
2022-08-29T04:57:56.359Z,100.00
2022-08-29T05:00:28.395Z,100.00
2022-08-29T05:02:55.894Z,100.00
2022-08-29T05:05:23.535Z,100.00
2022-08-29T05:07:51.009Z,100.00
2022-08-29T05:10:20.799Z,100.00
2022-08-29T05:12:48.784Z,100.00
2022-08-29T05:15:17.076Z,100.00
2022-08-29T05:17:45.469Z,100.00
2022-08-29T05:20:14.048Z,100.00
2022-08-29T05:22:42.304Z,100.00
2022-08-29T05:25:17.309Z,100.00
2022-08-29T05:27:45.783Z,100.00
2022-08-29T05:30:14.123Z,100.00
2022-08-29T05:32:41.100Z,100.00
2022-08-29T05:35:08.838Z,100.00
2022-08-29T05:37:36.992Z,100.00
2022-08-29T05:40:05.446Z,100.00
2022-08-29T05:42:32.670Z,100.00
2022-08-29T05:44:59.789Z,100.00
2022-08-29T05:47:27.172Z,100.00
2022-08-29T05:49:54.192Z,100.00
2022-08-29T05:52:21.570Z,100.00
2022-08-29T05:54:49.248Z,100.00
2022-08-29T05:57:20.738Z,100.00
2022-08-29T05:59:51.151Z,100.00
2022-08-29T06:02:21.191Z,100.00
2022-08-29T06:04:48.639Z,100.00
2022-08-29T06:07:16.008Z,100.00
2022-08-29T06:09:44.745Z,100.00
2022-08-29T06:12:16.337Z,100.00
2022-08-29T06:14:50.375Z,100.00
2022-08-29T06:17:18.592Z,100.00
2022-08-29T06:19:46.068Z,100.00
2022-08-29T06:22:13.166Z,100.00
2022-08-29T06:24:44.438Z,100.00
2022-08-29T06:27:13.030Z,100.00
2022-08-29T06:29:43.395Z,100.00
2022-08-29T06:32:13.036Z,100.00
2022-08-29T06:34:40.713Z,100.00
2022-08-29T06:37:09.712Z,100.00
2022-08-29T06:39:36.779Z,100.00
2022-08-29T06:42:04.089Z,100.00
2022-08-29T06:44:34.876Z,100.00
2022-08-29T06:47:02.029Z,100.00
2022-08-29T06:49:29.788Z,100.00
2022-08-29T06:51:58.381Z,100.00
2022-08-29T06:54:28.772Z,100.00
2022-08-29T06:56:57.748Z,100.00
2022-08-29T06:59:25.937Z,100.00
2022-08-29T07:01:55.211Z,100.00
2022-08-29T07:04:22.775Z,100.00
2022-08-29T07:06:53.407Z,100.00
2022-08-29T07:09:20.396Z,100.00
2022-08-29T07:11:47.464Z,100.00
2022-08-29T07:14:14.672Z,100.00
2022-08-29T07:16:42.732Z,100.00
2022-08-29T07:19:10.866Z,100.00
2022-08-29T07:21:38.946Z,100.00
2022-08-29T07:24:07.712Z,100.00
2022-08-29T07:26:43.070Z,100.00
2022-08-29T07:29:16.134Z,100.00
2022-08-29T07:31:43.609Z,100.00
2022-08-29T07:34:11.407Z,100.00
2022-08-29T07:36:39.542Z,100.00
2022-08-29T07:39:12.148Z,100.00
2022-08-29T07:41:41.301Z,100.00
2022-08-29T07:44:09.491Z,100.00
2022-08-29T07:46:38.209Z,100.00
2022-08-29T07:49:05.723Z,100.00
2022-08-29T07:51:32.933Z,100.00
2022-08-29T07:54:00.133Z,100.00
2022-08-29T07:56:37.772Z,100.00
2022-08-29T07:59:06.840Z,99.99
2022-08-29T08:01:35.593Z,99.78
2022-08-29T08:04:04.074Z,100.00
2022-08-29T08:06:34.638Z,100.00
2022-08-29T08:09:05.548Z,99.52
2022-08-29T08:11:32.733Z,98.89
2022-08-29T08:14:00.267Z,99.47
2022-08-29T08:16:28.926Z,98.97
2022-08-29T08:18:56.862Z,98.12
2022-08-29T08:21:26.255Z,96.77
2022-08-29T08:23:54.386Z,95.80
2022-08-29T08:26:22.403Z,94.77
2022-08-29T08:28:50.300Z,96.65
2022-08-29T08:31:18.341Z,92.95
2022-08-29T08:33:47.649Z,91.75
2022-08-29T08:36:30.460Z,87.21
2022-08-29T08:39:00.035Z,84.75
2022-08-29T08:41:52.461Z,84.85
2022-08-29T08:44:22.136Z,81.24
2022-08-29T08:46:54.756Z,75.26
2022-08-29T08:49:40.617Z,74.13
2022-08-29T08:52:34.101Z,73.86
2022-08-29T08:55:24.756Z,70.45
2022-08-29T08:58:34.391Z,69.05
2022-08-29T09:01:39.873Z,66.68
2022-08-29T09:04:12.892Z,64.24
2022-08-29T09:06:58.376Z,61.61
2022-08-29T09:10:21.202Z,59.49
2022-08-29T09:13:12.816Z,58.84
2022-08-29T09:15:49.623Z,56.20
2022-08-29T09:18:36.085Z,55.39
2022-08-29T09:21:39.432Z,54.14
2022-08-29T09:24:06.129Z,50.68
2022-08-29T09:26:34.932Z,49.52
2022-08-29T09:29:01.987Z,50.38
2022-08-29T09:31:35.447Z,47.94
2022-08-29T09:34:12.741Z,47.30
2022-08-29T09:36:52.552Z,48.84
2022-08-29T09:39:30.237Z,49.23
2022-08-29T09:42:12.491Z,47.88
2022-08-29T09:44:43.276Z,44.84
2022-08-29T09:47:21.273Z,44.73
2022-08-29T09:50:11.691Z,44.63
2022-08-29T09:52:57.965Z,43.20
2022-08-29T09:55:31.133Z,41.72
2022-08-29T09:58:25.792Z,42.42
2022-08-29T10:01:19.423Z,43.18
2022-08-29T10:03:58.562Z,41.24
2022-08-29T10:06:45.042Z,41.46
2022-08-29T10:09:28.953Z,39.95
2022-08-29T10:12:08.635Z,41.67
2022-08-29T10:14:54.475Z,41.46
2022-08-29T10:18:00.920Z,41.05
2022-08-29T10:20:46.951Z,40.18
2022-08-29T10:23:42.824Z,41.36
2022-08-29T10:26:36.885Z,42.45
2022-08-29T10:29:31.896Z,41.93
2022-08-29T10:32:42.325Z,41.52
2022-08-29T10:35:32.920Z,40.01
2022-08-29T10:38:32.927Z,39.21
2022-08-29T10:41:03.126Z,37.23
2022-08-29T10:44:05.400Z,37.38
2022-08-29T10:47:12.196Z,37.01
2022-08-29T10:50:40.748Z,37.90
2022-08-29T10:53:19.914Z,36.96
2022-08-29T10:56:04.400Z,36.93
2022-08-29T10:59:18.523Z,35.92
2022-08-29T11:02:05.776Z,37.69
2022-08-29T11:04:50.725Z,38.13
2022-08-29T11:07:34.500Z,38.96
2022-08-29T11:10:10.816Z,38.65
2022-08-29T11:12:59.043Z,38.68
2022-08-29T11:15:44.026Z,37.35
2022-08-29T11:18:45.107Z,36.72
2022-08-29T11:21:37.374Z,35.92
2022-08-29T11:24:06.271Z,36.07
2022-08-29T11:26:58.266Z,35.07
2022-08-29T11:29:41.261Z,35.66
2022-08-29T11:32:36.031Z,35.43
2022-08-29T11:35:21.955Z,36.68
2022-08-29T11:38:46.774Z,35.86
2022-08-29T11:41:37.141Z,36.58
2022-08-29T11:44:25.150Z,36.00
2022-08-29T11:46:56.214Z,38.54
2022-08-29T11:49:38.577Z,38.42
2022-08-29T11:52:08.539Z,37.95
2022-08-29T11:54:35.592Z,38.65
2022-08-29T11:57:02.751Z,39.88
2022-08-29T12:00:04.283Z,39.54
2022-08-29T12:02:42.686Z,39.31
2022-08-29T12:05:17.801Z,38.68
2022-08-29T12:08:36.524Z,39.53
2022-08-29T12:11:05.807Z,39.75
2022-08-29T12:13:48.207Z,42.00
2022-08-29T12:16:43.601Z,43.23
2022-08-29T12:19:10.920Z,43.65
2022-08-29T12:21:37.775Z,44.51
2022-08-29T12:24:28.915Z,45.60
2022-08-29T12:26:56.552Z,48.54
2022-08-29T12:29:33.310Z,49.36
2022-08-29T12:32:50.573Z,48.73
2022-08-29T12:35:18.177Z,48.18
2022-08-29T12:37:52.703Z,49.95
2022-08-29T12:40:28.453Z,49.98
2022-08-29T12:43:25.899Z,51.61
2022-08-29T12:45:57.168Z,50.87
2022-08-29T12:48:40.192Z,50.19
2022-08-29T12:51:09.660Z,51.22
2022-08-29T12:53:37.765Z,50.98
2022-08-29T12:56:22.416Z,51.30
2022-08-29T12:58:52.987Z,53.84
2022-08-29T13:01:30.902Z,53.65
2022-08-29T13:04:17.819Z,51.90
2022-08-29T13:06:59.011Z,51.93
2022-08-29T13:09:49.296Z,51.13
2022-08-29T13:12:30.083Z,50.64
2022-08-29T13:15:07.655Z,51.28
2022-08-29T13:17:36.597Z,51.91
2022-08-29T13:20:38.037Z,53.08
2022-08-29T13:23:05.468Z,51.84
2022-08-29T13:25:34.445Z,53.52
2022-08-29T13:28:02.195Z,50.71
2022-08-29T13:30:29.689Z,52.41
2022-08-29T13:33:00.355Z,55.13
2022-08-29T13:35:35.886Z,52.47
2022-08-29T13:38:24.037Z,52.57
2022-08-29T13:40:55.092Z,55.18
2022-08-29T13:43:41.434Z,53.89
2022-08-29T13:46:25.835Z,53.26
2022-08-29T13:49:01.345Z,54.75
2022-08-29T13:51:28.989Z,53.53
2022-08-29T13:53:56.954Z,53.09
2022-08-29T13:56:33.197Z,53.63
2022-08-29T13:59:05.934Z,53.01
2022-08-29T14:04:37.318Z,53.49
2022-08-29T14:07:08.673Z,53.09
2022-08-29T14:09:41.048Z,52.54
2022-08-29T14:12:08.806Z,52.93
2022-08-29T14:14:37.055Z,51.92
2022-08-29T14:17:07.397Z,53.77
2022-08-29T14:19:35.341Z,53.11
2022-08-29T14:22:11.543Z,53.65
2022-08-29T14:24:45.247Z,52.50
2022-08-29T14:27:15.362Z,52.51
2022-08-29T14:29:42.473Z,53.57
2022-08-29T14:32:12.287Z,54.76
2022-08-29T14:34:40.238Z,52.83
2022-08-29T14:37:18.571Z,53.05
2022-08-29T14:39:45.543Z,53.31
2022-08-29T14:42:20.379Z,53.70
2022-08-29T14:44:55.124Z,53.82
2022-08-29T14:47:24.109Z,52.87
2022-08-29T14:49:51.204Z,52.56
2022-08-29T14:52:20.467Z,51.81
2022-08-29T14:54:47.472Z,52.19
2022-08-29T14:57:14.695Z,52.20
2022-08-29T14:59:42.483Z,53.90
2022-08-29T15:02:10.284Z,52.94
2022-08-29T15:04:38.182Z,55.68
2022-08-29T15:07:12.264Z,53.38
2022-08-29T15:09:43.594Z,54.68
2022-08-29T15:12:17.748Z,54.66
2022-08-29T15:14:46.571Z,54.13
2022-08-29T15:17:14.677Z,56.31
2022-08-29T15:22:28.985Z,55.90
2022-08-29T15:24:56.104Z,56.31
2022-08-29T15:27:27.387Z,57.68
2022-08-29T15:29:58.395Z,56.27
2022-08-29T15:32:25.951Z,58.59
2022-08-29T15:34:53.310Z,57.43
2022-08-29T15:37:20.407Z,56.80
2022-08-29T15:39:49.846Z,56.96
2022-08-29T15:42:28.880Z,57.32
2022-08-29T15:45:07.695Z,56.19
2022-08-29T15:47:39.888Z,57.76
2022-08-29T15:50:09.706Z,57.36
2022-08-29T15:52:43.228Z,57.22
2022-08-29T15:55:12.661Z,57.51
2022-08-29T15:57:52.197Z,57.81
2022-08-29T16:00:29.765Z,56.95
2022-08-29T16:03:03.534Z,57.34
2022-08-29T16:05:33.732Z,57.03
2022-08-29T16:08:04.275Z,57.49
2022-08-29T16:10:35.077Z,57.65
2022-08-29T16:13:02.762Z,58.79
2022-08-29T16:15:34.003Z,58.54
2022-08-29T16:18:05.508Z,58.31
2022-08-29T16:20:35.834Z,58.88
2022-08-29T16:23:04.626Z,59.06
2022-08-29T16:25:33.448Z,60.40
2022-08-29T16:28:01.212Z,59.52
2022-08-29T16:30:33.262Z,59.38
2022-08-29T16:33:01.251Z,61.23
2022-08-29T16:35:28.876Z,60.24
2022-08-29T16:38:02.468Z,60.74
2022-08-29T16:40:34.519Z,61.74
2022-08-29T16:43:04.804Z,61.92
2022-08-29T16:45:33.117Z,62.14
2022-08-29T16:48:00.359Z,63.65
2022-08-29T16:50:28.739Z,63.24
2022-08-29T16:52:56.327Z,62.39
2022-08-29T16:55:24.271Z,63.94
2022-08-29T16:58:10.299Z,63.81
2022-08-29T17:00:39.464Z,65.38
2022-08-29T17:03:06.739Z,65.85
2022-08-29T17:05:33.883Z,65.58
2022-08-29T17:08:00.880Z,67.51
2022-08-29T17:10:28.031Z,67.47
2022-08-29T17:12:55.285Z,68.49
2022-08-29T17:15:22.708Z,69.05
2022-08-29T17:17:49.729Z,70.54
2022-08-29T17:20:17.157Z,69.45
2022-08-29T17:22:44.190Z,70.96
2022-08-29T17:25:11.871Z,71.46
2022-08-29T17:27:39.142Z,71.78
2022-08-29T17:30:08.342Z,72.75
2022-08-29T17:32:35.593Z,73.14
2022-08-29T17:35:02.682Z,72.76
2022-08-29T17:37:36.072Z,73.47
2022-08-29T17:40:06.530Z,74.20
2022-08-29T17:42:33.714Z,74.48
2022-08-29T17:45:00.800Z,74.93
2022-08-29T17:47:28.723Z,75.61
2022-08-29T17:49:56.033Z,76.02
2022-08-29T17:52:23.282Z,76.34
2022-08-29T17:54:53.926Z,76.95
2022-08-29T17:57:21.311Z,77.50
2022-08-29T17:59:53.893Z,77.78
2022-08-29T18:02:21.770Z,77.75
2022-08-29T18:04:48.845Z,78.27
2022-08-29T18:07:16.230Z,79.00
2022-08-29T18:09:43.669Z,79.50
2022-08-29T18:12:10.680Z,79.88
2022-08-29T18:14:38.105Z,80.41
2022-08-29T18:17:05.836Z,79.85
2022-08-29T18:19:33.196Z,80.15
2022-08-29T18:22:00.266Z,80.71
2022-08-29T18:24:27.390Z,81.16
2022-08-29T18:26:54.509Z,81.27
2022-08-29T18:29:21.869Z,81.49
2022-08-29T18:31:49.984Z,82.25
2022-08-29T18:34:17.693Z,83.25
2022-08-29T18:36:46.892Z,84.26
2022-08-29T18:39:15.811Z,85.03
2022-08-29T18:41:45.268Z,86.31
2022-08-29T18:44:13.887Z,87.98
2022-08-29T18:46:41.236Z,88.47
2022-08-29T18:49:09.080Z,89.87
2022-08-29T18:51:39.686Z,90.14
2022-08-29T18:54:09.541Z,91.71
2022-08-29T18:56:38.113Z,92.10
2022-08-29T18:59:05.325Z,92.78
2022-08-29T19:01:33.877Z,93.25
2022-08-29T19:04:02.633Z,93.42
2022-08-29T19:06:29.854Z,94.51
2022-08-29T19:08:58.319Z,95.16
2022-08-29T19:11:28.166Z,95.74
2022-08-29T19:13:55.499Z,96.17
2022-08-29T19:16:26.035Z,97.08
2022-08-29T19:18:53.370Z,98.01
2022-08-29T19:21:22.660Z,99.13
2022-08-29T19:23:53.467Z,99.57
2022-08-29T19:26:31.627Z,100.00
2022-08-29T19:29:09.895Z,100.00
2022-08-29T19:31:37.521Z,100.00
2022-08-29T19:34:04.714Z,100.00
2022-08-29T19:36:34.757Z,100.00
2022-08-29T19:39:01.917Z,100.00
2022-08-29T19:41:29.285Z,100.00
2022-08-29T19:43:56.348Z,100.00
2022-08-29T19:46:28.078Z,100.00
2022-08-29T19:48:56.430Z,100.00
2022-08-29T19:51:25.583Z,100.00
2022-08-29T19:53:57.183Z,100.00
2022-08-29T19:56:26.461Z,100.00
2022-08-29T19:58:54.105Z,100.00
2022-08-29T20:01:21.428Z,100.00
2022-08-29T20:03:49.996Z,100.00
2022-08-29T20:06:20.480Z,100.00
2022-08-29T20:08:48.045Z,100.00
2022-08-29T20:11:20.283Z,100.00
2022-08-29T20:13:51.051Z,100.00
2022-08-29T20:16:22.829Z,100.00
2022-08-29T20:18:52.308Z,100.00
2022-08-29T20:21:23.303Z,100.00
2022-08-29T20:23:57.274Z,100.00
2022-08-29T20:26:27.930Z,100.00
2022-08-29T20:28:56.230Z,100.00
2022-08-29T20:31:23.360Z,100.00
2022-08-29T20:33:51.075Z,100.00
2022-08-29T20:36:41.051Z,100.00
2022-08-29T20:39:12.260Z,100.00
2022-08-29T20:41:39.947Z,100.00
2022-08-29T20:44:09.887Z,100.00
2022-08-29T20:46:42.632Z,100.00
2022-08-29T20:49:12.625Z,100.00
2022-08-29T20:51:43.989Z,100.00
2022-08-29T20:54:18.384Z,100.00
2022-08-29T20:56:45.908Z,100.00
2022-08-29T20:59:13.171Z,100.00
2022-08-29T21:01:41.686Z,100.00
2022-08-29T21:04:29.912Z,100.00
2022-08-29T21:07:04.258Z,100.00
2022-08-29T21:09:35.819Z,100.00
2022-08-29T21:12:03.836Z,100.00
2022-08-29T21:14:31.086Z,100.00
2022-08-29T21:16:58.790Z,100.00
2022-08-29T21:19:31.765Z,100.00
2022-08-29T21:22:01.576Z,100.00
2022-08-29T21:24:30.435Z,100.00
2022-08-29T21:27:01.225Z,100.00
2022-08-29T21:29:28.951Z,100.00
2022-08-29T21:31:56.602Z,100.00
2022-08-29T21:34:24.468Z,100.00
2022-08-29T21:36:52.210Z,100.00
2022-08-29T21:39:28.767Z,100.00
2022-08-29T21:41:57.930Z,100.00
2022-08-29T21:44:28.819Z,100.00
2022-08-29T21:46:56.088Z,100.00
2022-08-29T21:49:23.888Z,100.00
2022-08-29T21:51:50.967Z,100.00
2022-08-29T21:54:21.128Z,100.00
2022-08-29T21:56:50.450Z,100.00
2022-08-29T21:59:19.284Z,100.00
2022-08-29T22:01:49.000Z,100.00
2022-08-29T22:04:28.289Z,100.00
2022-08-29T22:06:59.216Z,100.00
2022-08-29T22:09:28.567Z,100.00
2022-08-29T22:11:59.588Z,100.00
2022-08-29T22:14:46.741Z,100.00
2022-08-29T22:17:17.184Z,100.00
2022-08-29T22:19:47.527Z,100.00
2022-08-29T22:22:17.243Z,100.00
2022-08-29T22:24:44.310Z,100.00
2022-08-29T22:27:11.415Z,100.00
2022-08-29T22:29:38.612Z,100.00
2022-08-29T22:32:06.030Z,100.00
2022-08-29T22:34:33.423Z,100.00
2022-08-29T22:37:00.853Z,100.00
2022-08-29T22:39:28.740Z,100.00
2022-08-29T22:41:56.509Z,100.00
2022-08-29T22:47:16.076Z,100.00
2022-08-29T22:49:43.401Z,100.00
2022-08-29T22:52:13.990Z,100.00
2022-08-29T22:54:41.905Z,100.00
2022-08-29T22:57:12.263Z,100.00
2022-08-29T22:59:41.485Z,100.00
2022-08-29T23:02:09.784Z,100.00
2022-08-29T23:04:38.259Z,100.00
2022-08-29T23:07:07.924Z,100.00
2022-08-29T23:09:36.075Z,100.00
2022-08-29T23:12:08.737Z,100.00
2022-08-29T23:14:41.637Z,100.00
2022-08-29T23:17:10.355Z,100.00
2022-08-29T23:19:40.932Z,100.00
2022-08-29T23:22:11.396Z,100.00
2022-08-29T23:24:57.585Z,100.00
2022-08-29T23:27:28.192Z,100.00
2022-08-29T23:29:57.180Z,100.00
2022-08-29T23:32:24.440Z,100.00
2022-08-29T23:34:52.267Z,100.00
2022-08-29T23:37:19.600Z,100.00
2022-08-29T23:39:46.993Z,100.00
2022-08-29T23:42:14.246Z,100.00
2022-08-29T23:44:41.269Z,100.00
2022-08-29T23:47:08.927Z,100.00
2022-08-29T23:49:36.162Z,100.00
2022-08-29T23:52:05.042Z,100.00
2022-08-29T23:54:32.068Z,100.00
2022-08-29T23:56:59.185Z,100.00
2022-08-29T23:59:45.381Z,100.00
